sensor_id;sensor_type;location;lat;lon;timestamp;temperature;humidity
1950;DHT22;975;48.760;9.152;2022-08-20T07:42:26;25.10;75.80
1950;DHT22;975;48.760;9.152;2022-08-20T07:44:54;23.90;88.90
1950;DHT22;975;48.760;9.152;2022-08-20T07:47:21;24.10;87.70
1950;DHT22;975;48.760;9.152;2022-08-20T07:49:48;24.20;86.90
1950;DHT22;975;48.760;9.152;2022-08-20T07:52:15;24.40;85.80
1950;DHT22;975;48.760;9.152;2022-08-20T07:54:42;24.70;85.20
1950;DHT22;975;48.760;9.152;2022-08-20T07:57:11;24.90;83.90
1950;DHT22;975;48.760;9.152;2022-08-20T07:59:38;25.10;83.30
1950;DHT22;975;48.760;9.152;2022-08-20T08:02:06;25.30;81.90
1950;DHT22;975;48.760;9.152;2022-08-20T08:04:33;25.40;80.80
1950;DHT22;975;48.760;9.152;2022-08-20T08:07:04;25.60;81.00
1950;DHT22;975;48.760;9.152;2022-08-20T08:09:32;25.70;79.60
1950;DHT22;975;48.760;9.152;2022-08-20T08:12:00;25.60;79.10
1950;DHT22;975;48.760;9.152;2022-08-20T08:14:32;25.60;79.90
1950;DHT22;975;48.760;9.152;2022-08-20T08:17:02;25.40;80.90
1950;DHT22;975;48.760;9.152;2022-08-20T08:19:32;25.50;80.30
1950;DHT22;975;48.760;9.152;2022-08-20T08:22:05;25.60;79.40
1950;DHT22;975;48.760;9.152;2022-08-20T08:24:33;25.70;79.80
1950;DHT22;975;48.760;9.152;2022-08-20T08:27:00;25.80;79.20
1950;DHT22;975;48.760;9.152;2022-08-20T08:29:28;25.80;78.00
1950;DHT22;975;48.760;9.152;2022-08-20T08:31:56;25.90;77.50
1950;DHT22;975;48.760;9.152;2022-08-20T13:08:23;26.00;76.80
1950;DHT22;975;48.760;9.152;2022-08-20T13:10:50;25.00;86.90
1950;DHT22;975;48.760;9.152;2022-08-20T13:13:17;24.80;90.70
1950;DHT22;975;48.760;9.152;2022-08-20T13:15:44;24.40;91.50
1950;DHT22;975;48.760;9.152;2022-08-20T13:18:11;24.40;91.80
1950;DHT22;975;48.760;9.152;2022-08-20T13:20:38;24.40;92.10
1950;DHT22;975;48.760;9.152;2022-08-20T13:23:07;24.70;91.90
1950;DHT22;975;48.760;9.152;2022-08-20T13:25:34;24.90;90.60
1950;DHT22;975;48.760;9.152;2022-08-20T13:28:03;25.10;90.70
1950;DHT22;975;48.760;9.152;2022-08-20T13:30:31;25.30;90.30
1950;DHT22;975;48.760;9.152;2022-08-20T13:32:59;25.40;90.70
1950;DHT22;975;48.760;9.152;2022-08-20T13:35:27;25.50;90.40
1950;DHT22;975;48.760;9.152;2022-08-20T13:37:54;25.60;89.80
1950;DHT22;975;48.760;9.152;2022-08-20T13:40:23;25.70;89.20
1950;DHT22;975;48.760;9.152;2022-08-20T13:42:50;25.60;84.80
1950;DHT22;975;48.760;9.152;2022-08-20T13:45:18;25.60;84.80
1950;DHT22;975;48.760;9.152;2022-08-20T13:47:45;25.80;83.10
1950;DHT22;975;48.760;9.152;2022-08-20T13:50:15;25.70;82.10
1950;DHT22;975;48.760;9.152;2022-08-20T13:52:43;25.70;83.90
1950;DHT22;975;48.760;9.152;2022-08-20T13:55:12;25.90;83.50
1950;DHT22;975;48.760;9.152;2022-08-20T13:57:42;25.80;83.30
1950;DHT22;975;48.760;9.152;2022-08-20T14:00:10;26.00;80.70
1950;DHT22;975;48.760;9.152;2022-08-20T14:02:39;25.90;79.50
1950;DHT22;975;48.760;9.152;2022-08-20T14:05:08;25.50;81.60
1950;DHT22;975;48.760;9.152;2022-08-20T14:07:36;25.60;81.60
1950;DHT22;975;48.760;9.152;2022-08-20T14:10:06;25.60;82.00
1950;DHT22;975;48.760;9.152;2022-08-20T14:12:33;25.80;80.10
1950;DHT22;975;48.760;9.152;2022-08-20T14:15:02;25.80;80.20
1950;DHT22;975;48.760;9.152;2022-08-20T14:17:32;25.90;82.40
1950;DHT22;975;48.760;9.152;2022-08-20T14:20:02;25.90;83.80
1950;DHT22;975;48.760;9.152;2022-08-20T14:22:30;26.00;83.20
1950;DHT22;975;48.760;9.152;2022-08-20T14:24:57;26.00;83.50
1950;DHT22;975;48.760;9.152;2022-08-20T14:27:28;26.10;83.50
1950;DHT22;975;48.760;9.152;2022-08-20T14:29:57;26.50;81.90
1950;DHT22;975;48.760;9.152;2022-08-20T14:32:26;26.50;79.10
1950;DHT22;975;48.760;9.152;2022-08-20T14:34:53;26.60;80.30
1950;DHT22;975;48.760;9.152;2022-08-20T14:37:23;26.70;78.50
1950;DHT22;975;48.760;9.152;2022-08-20T14:39:53;26.80;77.60
1950;DHT22;975;48.760;9.152;2022-08-20T14:42:21;26.80;78.20
1950;DHT22;975;48.760;9.152;2022-08-20T14:44:49;26.90;77.30
1950;DHT22;975;48.760;9.152;2022-08-20T14:47:19;27.00;79.00
1950;DHT22;975;48.760;9.152;2022-08-20T14:49:49;26.80;79.60
1950;DHT22;975;48.760;9.152;2022-08-20T14:52:21;26.70;80.20
1950;DHT22;975;48.760;9.152;2022-08-20T14:54:49;26.40;81.40
1950;DHT22;975;48.760;9.152;2022-08-20T14:57:17;26.20;82.80
1950;DHT22;975;48.760;9.152;2022-08-20T14:59:45;26.00;82.80
1950;DHT22;975;48.760;9.152;2022-08-20T15:02:14;25.70;83.80
1950;DHT22;975;48.760;9.152;2022-08-20T15:04:42;25.60;85.30
1950;DHT22;975;48.760;9.152;2022-08-20T15:07:20;25.80;84.40
1950;DHT22;975;48.760;9.152;2022-08-20T15:09:48;26.00;83.70
1950;DHT22;975;48.760;9.152;2022-08-20T15:12:15;26.30;82.40
1950;DHT22;975;48.760;9.152;2022-08-20T15:14:42;26.60;81.50
1950;DHT22;975;48.760;9.152;2022-08-20T15:17:10;26.70;80.40
1950;DHT22;975;48.760;9.152;2022-08-20T15:19:37;26.70;80.00
1950;DHT22;975;48.760;9.152;2022-08-20T15:22:04;26.70;80.10
1950;DHT22;975;48.760;9.152;2022-08-20T15:24:33;26.50;81.10
1950;DHT22;975;48.760;9.152;2022-08-20T15:27:10;26.40;81.90
1950;DHT22;975;48.760;9.152;2022-08-20T15:29:37;26.20;82.90
1950;DHT22;975;48.760;9.152;2022-08-20T15:32:30;26.30;83.60
1950;DHT22;975;48.760;9.152;2022-08-20T15:34:58;26.30;83.30
1950;DHT22;975;48.760;9.152;2022-08-20T16:10:16;26.60;81.50
1950;DHT22;975;48.760;9.152;2022-08-20T16:12:49;28.70;49.50
1950;DHT22;975;48.760;9.152;2022-08-20T16:15:21;28.20;50.40
1950;DHT22;975;48.760;9.152;2022-08-20T16:17:54;27.80;52.20
1950;DHT22;975;48.760;9.152;2022-08-20T16:20:32;27.80;52.10
1950;DHT22;975;48.760;9.152;2022-08-20T16:23:00;27.70;52.30
1950;DHT22;975;48.760;9.152;2022-08-20T16:25:33;27.80;53.50
1950;DHT22;975;48.760;9.152;2022-08-20T16:28:09;27.90;52.80
1950;DHT22;975;48.760;9.152;2022-08-20T16:30:45;27.80;50.50
1950;DHT22;975;48.760;9.152;2022-08-20T16:33:15;27.60;50.80
1950;DHT22;975;48.760;9.152;2022-08-20T16:35:48;27.40;50.00
1950;DHT22;975;48.760;9.152;2022-08-20T16:38:19;27.30;49.70
1950;DHT22;975;48.760;9.152;2022-08-20T16:40:52;27.20;50.30
1950;DHT22;975;48.760;9.152;2022-08-20T16:43:24;27.10;50.70
1950;DHT22;975;48.760;9.152;2022-08-20T16:45:54;27.20;50.50
1950;DHT22;975;48.760;9.152;2022-08-20T16:48:30;27.30;50.90
1950;DHT22;975;48.760;9.152;2022-08-20T16:51:02;27.50;52.00
1950;DHT22;975;48.760;9.152;2022-08-20T16:53:31;27.70;50.80
1950;DHT22;975;48.760;9.152;2022-08-20T16:55:58;27.80;50.30
1950;DHT22;975;48.760;9.152;2022-08-20T16:58:27;28.10;49.50
1950;DHT22;975;48.760;9.152;2022-08-20T17:01:05;28.30;49.10
1950;DHT22;975;48.760;9.152;2022-08-20T17:03:32;28.50;48.30
1950;DHT22;975;48.760;9.152;2022-08-20T17:06:00;28.70;47.00
1950;DHT22;975;48.760;9.152;2022-08-20T17:08:30;28.60;47.80
1950;DHT22;975;48.760;9.152;2022-08-20T17:11:02;28.50;46.30
1950;DHT22;975;48.760;9.152;2022-08-20T17:13:37;28.40;46.50
1950;DHT22;975;48.760;9.152;2022-08-20T17:16:18;28.10;46.30
1950;DHT22;975;48.760;9.152;2022-08-20T17:18:46;27.80;46.80
1950;DHT22;975;48.760;9.152;2022-08-20T17:21:16;27.40;48.10
1950;DHT22;975;48.760;9.152;2022-08-20T17:23:51;27.10;47.90
1950;DHT22;975;48.760;9.152;2022-08-20T17:26:21;26.90;48.90
1950;DHT22;975;48.760;9.152;2022-08-20T17:28:53;26.80;49.30
1950;DHT22;975;48.760;9.152;2022-08-20T17:31:30;26.70;49.80
1950;DHT22;975;48.760;9.152;2022-08-20T17:33:57;26.50;50.80
1950;DHT22;975;48.760;9.152;2022-08-20T17:36:24;26.30;51.40
1950;DHT22;975;48.760;9.152;2022-08-20T17:38:54;26.20;52.10
1950;DHT22;975;48.760;9.152;2022-08-20T17:41:22;26.00;53.30
1950;DHT22;975;48.760;9.152;2022-08-20T17:43:56;25.90;53.20
1950;DHT22;975;48.760;9.152;2022-08-20T17:46:26;25.70;54.00
1950;DHT22;975;48.760;9.152;2022-08-20T17:48:59;25.60;54.60
1950;DHT22;975;48.760;9.152;2022-08-20T17:51:32;25.50;55.10
1950;DHT22;975;48.760;9.152;2022-08-20T17:54:08;25.30;55.50
1950;DHT22;975;48.760;9.152;2022-08-20T17:56:38;25.20;56.10
1950;DHT22;975;48.760;9.152;2022-08-20T17:59:16;25.10;56.70
1950;DHT22;975;48.760;9.152;2022-08-20T19:48:00;24.90;57.20
1950;DHT22;975;48.760;9.152;2022-08-20T19:50:36;20.30;83.10
1950;DHT22;975;48.760;9.152;2022-08-20T19:53:17;20.10;84.10
1950;DHT22;975;48.760;9.152;2022-08-20T19:55:55;19.80;84.30
1950;DHT22;975;48.760;9.152;2022-08-20T19:58:23;19.70;84.60
1950;DHT22;975;48.760;9.152;2022-08-20T20:00:54;19.70;84.70
1950;DHT22;975;48.760;9.152;2022-08-20T20:03:24;19.60;85.20
1950;DHT22;975;48.760;9.152;2022-08-20T20:05:54;19.60;85.30
1950;DHT22;975;48.760;9.152;2022-08-20T20:08:24;19.50;85.50
1950;DHT22;975;48.760;9.152;2022-08-20T20:10:55;19.50;85.70
1950;DHT22;975;48.760;9.152;2022-08-20T20:13:25;19.50;86.00
1950;DHT22;975;48.760;9.152;2022-08-20T20:15:54;19.40;85.60
1950;DHT22;975;48.760;9.152;2022-08-20T20:18:26;19.40;86.00
1950;DHT22;975;48.760;9.152;2022-08-20T23:19:05;19.30;86.10
1950;DHT22;975;48.760;9.152;2022-08-20T23:21:32;17.80;90.20
1950;DHT22;975;48.760;9.152;2022-08-20T23:24:00;17.50;90.70
1950;DHT22;975;48.760;9.152;2022-08-20T23:26:27;17.50;90.80
1950;DHT22;975;48.760;9.152;2022-08-20T23:28:55;17.40;90.90
1950;DHT22;975;48.760;9.152;2022-08-20T23:31:22;17.40;90.90
1950;DHT22;975;48.760;9.152;2022-08-20T23:33:50;17.30;91.10
1950;DHT22;975;48.760;9.152;2022-08-20T23:36:18;17.30;91.00
1950;DHT22;975;48.760;9.152;2022-08-20T23:38:46;17.40;90.90
1950;DHT22;975;48.760;9.152;2022-08-20T23:41:13;17.30;90.80
1950;DHT22;975;48.760;9.152;2022-08-20T23:43:40;17.20;90.90
1950;DHT22;975;48.760;9.152;2022-08-20T23:46:11;17.10;91.30
1950;DHT22;975;48.760;9.152;2022-08-20T23:48:38;17.00;91.40
1950;DHT22;975;48.760;9.152;2022-08-20T23:51:05;17.00;91.60
1950;DHT22;975;48.760;9.152;2022-08-20T23:53:33;17.00;91.70
1950;DHT22;975;48.760;9.152;2022-08-20T23:56:00;17.00;91.60
1950;DHT22;975;48.760;9.152;2022-08-20T23:58:28;17.00;91.40
